Time;durP1;ratioP1;P1;durP2;ratioP2;P2;SDS_P1;SDS_P2;PMS_P1;PMS_P2;Temp;Humidity;BMP_temperature;BMP_pressure;BME280_temperature;BME280_humidity;BME280_pressure;Samples;Min_cycle;Max_cycle;Signal;HPM_P1;HPM_P2
2022/01/01 00:01:12;;;;;;;;;37.33;32.00;;;;;1.96;95.01;100976.00;6254779;23;11492;-66
2022/01/01 00:04:08;;;;;;;;;40.00;38.00;;;;;1.52;96.37;100984.50;6244648;23;11519;-66
2022/01/01 00:06:56;;;;;;;;;41.33;41.33;;;;;1.41;98.17;100980.09;6245887;23;11513;-67
2022/01/01 00:09:51;;;;;;;;;48.00;44.00;;;;;1.41;98.99;100982.81;6244537;23;11493;-67
2022/01/01 00:12:48;;;;;;;;;29.00;27.00;;;;;1.37;99.58;100990.69;6244333;23;11561;-67
2022/01/01 00:15:43;;;;;;;;;42.67;36.33;;;;;1.50;98.88;100980.41;6244388;23;11485;-67
2022/01/01 00:18:39;;;;;;;;;33.00;30.00;;;;;1.41;99.12;100985.53;6224606;23;12293;-67
2022/01/01 00:21:35;;;;;;;;;39.33;37.00;;;;;1.47;99.35;100976.31;6244675;23;8895;-67
2022/01/01 00:24:31;;;;;;;;;49.33;43.00;;;;;1.42;99.63;100972.72;6244500;23;8773;-67
2022/01/01 00:27:26;;;;;;;;;44.33;42.00;;;;;1.51;99.30;100971.16;6244703;23;8801;-67
2022/01/01 00:30:22;;;;;;;;;41.67;38.67;;;;;1.52;99.71;100967.31;6244297;23;11495;-67
2022/01/01 00:33:17;;;;;;;;;39.00;32.33;;;;;1.50;99.78;100967.59;6244341;23;12351;-67
2022/01/01 00:35:45;;;;;;;;;23.33;22.00;;;;;1.48;99.83;100950.69;6254732;23;11575;-67
2022/01/01 00:38:41;;;;;;;;;42.33;41.00;;;;;1.45;100.00;100962.09;6244455;23;11479;-67
2022/01/01 00:41:36;;;;;;;;;38.67;38.33;;;;;1.47;100.00;100956.41;6244254;23;11502;-67
2022/01/01 00:44:32;;;;;;;;;39.00;37.67;;;;;1.45;100.00;100955.84;6245378;22;11496;-67
2022/01/01 00:47:28;;;;;;;;;36.00;36.00;;;;;1.42;100.00;100940.03;6244082;23;11520;-67
2022/01/01 00:50:23;;;;;;;;;40.00;37.00;;;;;1.48;100.00;100942.53;6244279;23;11610;-67
2022/01/01 00:53:19;;;;;;;;;43.00;39.00;;;;;1.51;100.00;100933.81;6243937;23;9468;-67
2022/01/01 00:55:52;;;;;;;;;46.33;38.33;;;;;1.53;100.00;100923.44;6229177;23;11489;-67
2022/01/01 00:58:48;;;;;;;;;36.75;36.25;;;;;1.46;100.00;100919.31;6245463;22;11537;-67
2022/01/01 01:01:43;;;;;;;;;39.00;36.25;;;;;1.54;100.00;100918.84;6243773;23;11571;-67
2022/01/01 01:04:11;;;;;;;;;43.75;41.25;;;;;1.48;100.00;100918.00;6227764;23;11495;-67
2022/01/01 01:07:08;;;;;;;;;29.67;28.00;;;;;1.59;100.00;100907.94;6225228;23;11492;-67
2022/01/01 01:10:05;;;;;;;;;44.00;31.33;;;;;1.69;100.00;100902.56;6244177;23;12216;-66
2022/01/01 01:13:01;;;;;;;;;42.67;41.33;;;;;1.63;100.00;100893.53;6243773;23;11585;-67
2022/01/01 01:15:56;;;;;;;;;15.00;15.00;;;;;1.60;100.00;100890.50;6224057;23;11570;-66
2022/01/01 01:18:54;;;;;;;;;35.00;33.33;;;;;1.61;100.00;100883.94;6244596;23;11617;-67
2022/01/01 01:21:51;;;;;;;;;43.33;39.33;;;;;1.64;100.00;100886.16;6244712;23;11498;-67
2022/01/01 01:24:46;;;;;;;;;31.00;30.00;;;;;1.62;100.00;100880.16;6243810;23;11503;-67
2022/01/01 01:27:42;;;;;;;;;55.00;41.67;;;;;1.64;100.00;100870.63;6243851;23;11494;-67
2022/01/01 01:30:39;;;;;;;;;44.33;33.00;;;;;1.73;100.00;100870.91;6223764;23;11513;-67
2022/01/01 01:33:34;;;;;;;;;37.67;37.00;;;;;1.77;100.00;100855.69;6244929;23;11554;-67
2022/01/01 01:36:30;;;;;;;;;43.33;39.00;;;;;1.82;100.00;100852.94;6243677;23;11531;-67
2022/01/01 01:39:25;;;;;;;;;45.33;43.33;;;;;1.78;99.75;100853.78;6244027;23;11504;-67
2022/01/01 01:42:22;;;;;;;;;37.75;34.00;;;;;1.72;100.00;100846.66;6243635;23;11508;-66
2022/01/01 01:45:21;;;;;;;;;23.75;22.50;;;;;1.85;99.91;100841.53;6243857;23;11523;-67
2022/01/01 01:48:16;;;;;;;;;48.25;42.75;;;;;1.87;99.84;100831.16;6243361;23;12221;-66
2022/01/01 01:51:12;;;;;;;;;31.75;31.75;;;;;1.86;99.02;100836.88;6224891;23;11496;-66
2022/01/01 01:54:10;;;;;;;;;43.75;38.75;;;;;1.86;99.58;100826.78;6243440;23;11503;-66
2022/01/01 01:57:06;;;;;;;;;49.67;43.00;;;;;1.82;99.54;100819.41;6243912;23;12180;-66
2022/01/01 02:00:06;;;;;;;;;39.50;36.50;;;;;1.92;99.53;100820.25;6223533;23;11495;-66
2022/01/01 02:03:03;;;;;;;;;38.75;38.75;;;;;1.81;99.62;100806.88;6243405;23;11489;-66
2022/01/01 02:05:58;;;;;;;;;40.25;40.25;;;;;1.84;100.00;100819.94;6244507;23;11542;-66
2022/01/01 02:08:54;;;;;;;;;34.33;33.00;;;;;1.79;100.00;100800.88;6244779;22;11530;-67
2022/01/01 02:11:52;;;;;;;;;40.75;40.25;;;;;1.87;99.83;100805.78;6243297;23;11504;-65
2022/01/01 02:17:43;;;;;;;;;38.00;34.25;;;;;1.94;99.60;100785.34;6243658;23;11583;-66
2022/01/01 02:20:39;;;;;;;;;47.67;42.67;;;;;1.86;99.93;100774.16;6244677;23;11589;-66
2022/01/01 02:23:23;;;;;;;;;37.33;33.67;;;;;1.95;99.64;100776.06;6221732;23;11553;-66
2022/01/01 02:26:18;;;;;;;;;40.00;37.33;;;;;1.90;99.54;100773.31;6243784;23;11511;-65
2022/01/01 02:29:14;;;;;;;;;43.00;36.00;;;;;1.98;99.50;100765.69;6243791;23;12222;-66
2022/01/01 02:32:13;;;;;;;;;44.67;42.00;;;;;1.95;99.84;100758.88;6243423;23;11498;-66
2022/01/01 02:35:11;;;;;;;;;40.50;38.00;;;;;1.91;99.46;100764.03;6244635;23;12251;-66
2022/01/01 02:38:08;;;;;;;;;43.25;39.25;;;;;1.96;99.33;100760.50;6243669;23;11493;-66
2022/01/01 02:41:03;;;;;;;;;43.00;36.33;;;;;2.02;99.49;100764.06;6243524;23;11525;-66
2022/01/01 02:43:51;;;;;;;;;41.33;38.00;;;;;2.01;98.92;100752.34;6245006;23;11516;-66
2022/01/01 02:46:47;;;;;;;;;39.33;38.67;;;;;1.97;98.98;100743.06;6244616;23;11504;-66
2022/01/01 02:49:43;;;;;;;;;37.33;36.00;;;;;1.98;99.05;100743.88;6243487;23;11509;-66
2022/01/01 02:52:39;;;;;;;;;34.75;34.75;;;;;1.97;99.54;100740.34;6223303;23;11612;-66
2022/01/01 02:55:34;;;;;;;;;30.50;27.25;;;;;1.93;100.00;100729.16;6243551;23;11571;-66
2022/01/01 02:58:30;;;;;;;;;52.75;39.50;;;;;2.01;99.84;100724.25;6243623;23;12197;-66
2022/01/01 03:01:25;;;;;;;;;40.75;38.75;;;;;2.04;99.52;100729.97;6243428;23;11591;-66
2022/01/01 03:04:21;;;;;;;;;44.33;43.33;;;;;2.09;99.73;100721.78;6243336;23;11526;-66
2022/01/01 03:07:16;;;;;;;;;39.67;39.67;;;;;2.03;99.83;100719.34;6223821;23;11517;-66
2022/01/01 03:10:12;;;;;;;;;34.00;34.00;;;;;1.96;100.00;100722.34;6243455;23;11601;-66
2022/01/01 03:13:08;;;;;;;;;36.50;33.00;;;;;1.93;100.00;100707.34;6243474;23;11481;-66
2022/01/01 03:16:03;;;;;;;;;40.67;36.33;;;;;1.90;100.00;100707.06;6243458;23;11498;-66
2022/01/01 03:18:59;;;;;;;;;34.33;33.33;;;;;1.95;100.00;100694.25;6243644;23;11490;-66
2022/01/01 03:21:26;;;;;;;;;30.25;29.00;;;;;2.01;100.00;100689.59;6253965;23;11472;-66
2022/01/01 03:24:22;;;;;;;;;34.25;33.75;;;;;2.10;100.00;100682.50;6244302;23;11483;-66
2022/01/01 03:27:18;;;;;;;;;43.00;35.50;;;;;2.08;99.90;100681.97;6226330;23;11512;-66
2022/01/01 03:29:45;;;;;;;;;41.75;39.25;;;;;2.01;100.00;100675.97;6255532;23;11490;-66
2022/01/01 03:32:41;;;;;;;;;37.25;34.75;;;;;2.03;100.00;100672.97;6245141;23;11534;-66
2022/01/01 03:35:36;;;;;;;;;37.50;32.00;;;;;2.06;100.00;100669.66;6245213;23;11493;-66
2022/01/01 03:38:18;;;;;;;;;31.00;30.75;;;;;2.08;100.00;100672.97;6246651;23;11481;-66
2022/01/01 03:40:46;;;;;;;;;38.33;37.33;;;;;2.07;100.00;100671.31;6255489;23;11481;-66
2022/01/01 03:43:42;;;;;;;;;48.67;38.33;;;;;2.05;100.00;100659.84;6245442;23;11533;-65
2022/01/01 03:46:37;;;;;;;;;34.00;32.00;;;;;2.13;100.00;100662.84;6226224;23;11527;-66
2022/01/01 03:49:18;;;;;;;;;41.33;40.33;;;;;2.08;100.00;100651.94;6246547;23;11594;-66
2022/01/01 03:51:47;;;;;;;;;31.33;28.33;;;;;2.06;100.00;100648.66;6255162;23;12220;-66
2022/01/01 03:54:42;;;;;;;;;36.33;34.67;;;;;2.10;100.00;100649.75;6244831;23;11525;-66
2022/01/01 03:57:10;;;;;;;;;32.75;32.75;;;;;2.21;100.00;100647.81;6255439;23;11490;-65
2022/01/01 04:00:11;;;;;;;;;36.67;35.67;;;;;2.13;100.00;100642.91;6245778;23;11508;-65
2022/01/01 04:02:39;;;;;;;;;37.00;35.67;;;;;2.12;100.00;100633.09;6255008;23;11531;-66
2022/01/01 04:05:08;;;;;;;;;36.75;36.25;;;;;1.95;100.00;100634.22;6253407;23;11495;-66
2022/01/01 04:08:04;;;;;;;;;30.50;28.50;;;;;2.05;100.00;100622.47;6245845;23;11488;-66
2022/01/01 04:10:33;;;;;;;;;36.00;34.00;;;;;2.16;100.00;100626.03;6219468;23;11477;-65
2022/01/01 04:13:28;;;;;;;;;31.25;29.50;;;;;2.15;100.00;100624.38;6244532;23;11696;-66
2022/01/01 04:16:24;;;;;;;;;33.00;29.00;;;;;2.18;100.00;100621.09;6244600;23;11484;-66
2022/01/01 04:19:25;;;;;;;;;28.25;27.25;;;;;2.12;100.00;100611.28;6244937;23;11570;-66
2022/01/01 04:22:21;;;;;;;;;28.00;26.50;;;;;2.11;100.00;100617.84;6244851;23;11492;-66
2022/01/01 04:25:17;;;;;;;;;27.75;25.75;;;;;2.22;100.00;100611.25;6244593;23;11490;-65
2022/01/01 04:28:12;;;;;;;;;27.50;25.25;;;;;2.14;100.00;100612.63;6244900;23;11589;-66
2022/01/01 04:31:08;;;;;;;;;28.50;27.00;;;;;2.15;100.00;100603.38;6244560;23;11504;-65
2022/01/01 04:34:04;;;;;;;;;25.25;23.75;;;;;2.18;100.00;100593.81;6244612;23;11516;-66
2022/01/01 04:37:11;;;;;;;;;23.00;23.00;;;;;2.05;100.00;100589.75;6244747;23;11520;-66
2022/01/01 04:40:08;;;;;;;;;29.50;29.50;;;;;2.11;100.00;100596.81;6225892;23;12173;-66
2022/01/01 04:43:04;;;;;;;;;26.25;24.50;;;;;2.22;100.00;100590.25;6244497;23;11537;-66
2022/01/01 04:45:59;;;;;;;;;23.50;21.75;;;;;2.22;100.00;100589.41;6243518;23;11506;-66
2022/01/01 04:48:37;;;;;;;;;21.50;21.00;;;;;2.16;100.00;100599.56;6249846;23;11466;-66
2022/01/01 04:51:23;;;;;;;;;21.75;21.75;;;;;2.26;100.00;100590.50;6254557;23;11564;-65
2022/01/01 04:53:57;;;;;;;;;28.50;27.75;;;;;2.17;100.00;100587.53;6254814;23;11466;-65
2022/01/01 04:56:53;;;;;;;;;30.00;26.00;;;;;2.20;100.00;100589.69;6224269;23;11532;-65
2022/01/01 04:59:49;;;;;;;;;21.75;21.50;;;;;2.31;100.00;100585.03;6245673;22;11510;-65
2022/01/01 05:02:44;;;;;;;;;23.75;23.50;;;;;2.29;100.00;100583.66;6244491;23;11482;-64
2022/01/01 05:05:40;;;;;;;;;26.00;24.00;;;;;2.25;100.00;100569.78;6244364;23;11505;-65
2022/01/01 05:08:35;;;;;;;;;28.50;27.00;;;;;2.32;100.00;100564.84;6225447;23;12191;-65
2022/01/01 05:11:31;;;;;;;;;30.50;30.50;;;;;2.27;100.00;100564.84;6244516;23;11621;-66
2022/01/01 05:14:27;;;;;;;;;30.00;28.00;;;;;2.29;100.00;100568.13;6244162;23;11503;-65
2022/01/01 05:17:23;;;;;;;;;27.25;27.25;;;;;2.37;100.00;100567.53;6244249;23;11496;-66
2022/01/01 05:19:55;;;;;;;;;26.50;23.00;;;;;2.31;100.00;100565.94;6254621;23;11510;-66
2022/01/01 05:22:38;;;;;;;;;25.25;25.25;;;;;2.33;100.00;100561.00;6244319;23;11538;-66
2022/01/01 05:25:33;;;;;;;;;37.50;34.50;;;;;2.33;100.00;100557.47;6244319;23;11614;-66
2022/01/01 05:28:30;;;;;;;;;32.75;30.50;;;;;2.32;100.00;100553.13;6244143;23;11492;-67
2022/01/01 05:31:26;;;;;;;;;31.00;28.00;;;;;2.31;100.00;100552.28;6243929;23;11509;-65
2022/01/01 05:34:22;;;;;;;;;30.25;28.50;;;;;2.36;100.00;100548.72;6245155;23;11490;-65
2022/01/01 05:37:17;;;;;;;;;30.75;28.25;;;;;2.30;100.00;100541.63;6244194;23;11496;-66
2022/01/01 05:40:13;;;;;;;;;25.00;25.00;;;;;2.38;100.00;100544.63;6244114;23;11476;-66
2022/01/01 05:43:13;;;;;;;;;38.00;36.00;;;;;2.34;100.00;100545.47;6225175;23;11536;-66
2022/01/01 05:46:09;;;;;;;;;33.25;30.00;;;;;2.42;100.00;100558.53;6223817;23;11547;-66
2022/01/01 05:49:05;;;;;;;;;19.00;18.50;;;;;2.32;100.00;100558.56;6243722;23;11636;-66
2022/01/01 05:52:00;;;;;;;;;38.25;33.75;;;;;2.35;100.00;100550.63;6243961;23;11463;-67
2022/01/01 05:54:56;;;;;;;;;26.25;26.25;;;;;2.43;100.00;100552.78;6243891;23;11599;-67
2022/01/01 05:57:52;;;;;;;;;27.50;26.75;;;;;2.38;100.00;100538.34;6243663;23;11506;-66
2022/01/01 06:00:41;;;;;;;;;30.75;30.75;;;;;2.43;100.00;100533.66;6246062;23;11514;-67
2022/01/01 06:03:37;;;;;;;;;33.75;33.25;;;;;2.46;100.00;100532.31;6243933;23;11574;-67
2022/01/01 06:06:33;;;;;;;;;30.75;26.75;;;;;2.53;100.00;100534.72;6243381;23;11490;-67
2022/01/01 06:09:29;;;;;;;;;21.00;21.00;;;;;2.47;100.00;100531.22;6243642;23;11515;-66
2022/01/01 06:11:58;;;;;;;;;28.50;27.00;;;;;2.53;100.00;100530.09;6254017;23;11484;-67
2022/01/01 06:14:26;;;;;;;;;33.75;32.75;;;;;2.53;100.00;100524.63;6245094;23;11541;-67
2022/01/01 06:17:22;;;;;;;;;25.25;25.00;;;;;2.63;100.00;100526.47;6243400;23;11510;-66
2022/01/01 06:19:50;;;;;;;;;24.75;24.50;;;;;2.62;100.00;100522.13;6253954;23;11474;-68
2022/01/01 06:22:34;;;;;;;;;16.00;16.00;;;;;2.55;100.00;100511.50;6254106;23;11483;-67
2022/01/01 06:25:30;;;;;;;;;27.75;26.00;;;;;2.64;100.00;100514.47;6223793;23;11575;-67
2022/01/01 06:28:25;;;;;;;;;22.25;22.25;;;;;2.62;100.00;100517.47;6244087;23;11623;-67
